createdAt,value
2022-12-11T00:14:03.075Z,0.1
2022-12-11T00:29:03.077Z,0.1
2022-12-11T00:44:03.054Z,0
2022-12-11T00:59:03.079Z,-0.1
2022-12-11T01:14:03.048Z,-0.3
2022-12-11T01:29:03.041Z,-0.3
2022-12-11T01:44:03.038Z,-0.4
2022-12-11T01:59:03.036Z,-0.4
2022-12-11T02:14:03.027Z,-0.5
2022-12-11T02:29:03.043Z,-0.5
2022-12-11T02:44:03.036Z,-0.5
2022-12-11T02:59:03.046Z,-0.6
2022-12-11T03:14:03.067Z,-0.7
2022-12-11T03:29:03.021Z,-0.7
2022-12-11T03:44:03.023Z,-0.7
2022-12-11T03:59:03.056Z,-0.6
2022-12-11T04:14:03.020Z,-0.8
2022-12-11T04:29:03.044Z,-0.9
2022-12-11T04:44:03.001Z,-1
2022-12-11T04:59:03.042Z,-1
2022-12-11T05:14:02.994Z,-0.9
2022-12-11T05:29:03.019Z,-1
2022-12-11T05:44:03.000Z,-1.1
2022-12-11T05:59:03.031Z,-1.1
2022-12-11T06:14:02.985Z,-1.2
2022-12-11T06:29:06.324Z,-1.2
2022-12-11T06:44:02.972Z,-1.3
2022-12-11T06:59:07.087Z,-1.2
2022-12-11T07:14:02.972Z,-1.2
2022-12-11T07:29:02.996Z,-1.2
2022-12-11T07:44:02.960Z,-1.2
2022-12-11T07:59:03.000Z,-1.2
2022-12-11T08:14:02.958Z,-1.2
2022-12-11T08:29:03.008Z,-1.1
2022-12-11T08:44:02.953Z,-1.1
2022-12-11T08:59:02.991Z,-1.1
2022-12-11T09:29:02.992Z,-1
2022-12-11T09:44:02.956Z,-0.9
2022-12-11T09:59:02.974Z,-0.7
2022-12-11T10:14:02.936Z,-0.2
2022-12-11T10:29:02.967Z,0
2022-12-11T10:44:02.927Z,0.2
2022-12-11T10:59:02.956Z,1.2
2022-12-11T11:14:02.956Z,1.9
2022-12-11T11:29:02.951Z,2.5
2022-12-11T11:44:02.941Z,3
2022-12-11T11:59:02.931Z,3.7
2022-12-11T12:14:03.442Z,3.8
2022-12-11T12:29:02.910Z,2.8
2022-12-11T12:44:02.940Z,2.5
2022-12-11T12:59:02.892Z,2.8
2022-12-11T13:14:02.853Z,3.2
2022-12-11T13:29:02.861Z,3
2022-12-11T13:59:02.846Z,1.9
2022-12-11T14:14:02.827Z,1.7
2022-12-11T14:29:02.837Z,1.6
2022-12-11T14:44:02.787Z,1.5
2022-12-11T14:59:02.837Z,1.5
2022-12-11T15:14:02.788Z,1.2
2022-12-11T15:29:02.821Z,0.9
2022-12-11T15:44:02.776Z,0.7
2022-12-11T15:59:02.778Z,0.7
2022-12-11T16:14:02.759Z,0.6
2022-12-11T16:29:02.759Z,0.2
2022-12-11T16:44:02.760Z,0
2022-12-11T16:59:02.754Z,-0.6
2022-12-11T17:14:02.745Z,-0.5
2022-12-11T17:29:02.751Z,-0.5
2022-12-11T17:44:02.735Z,-0.4
2022-12-11T17:59:02.770Z,-0.3
2022-12-11T18:29:02.760Z,-0.2
2022-12-11T18:44:06.632Z,-0.3
2022-12-11T18:59:02.739Z,-0.4
2022-12-11T19:14:02.703Z,-0.5
2022-12-11T19:29:02.749Z,-0.5
2022-12-11T19:44:02.700Z,-0.4
2022-12-11T19:59:02.742Z,-0.4
2022-12-11T20:14:02.692Z,-0.3
2022-12-11T20:29:02.721Z,-0.4
2022-12-11T20:44:02.679Z,-0.4
2022-12-11T20:59:02.721Z,-0.4
2022-12-11T21:14:02.691Z,-0.5
2022-12-11T21:29:02.685Z,-0.6
2022-12-11T21:45:21.216Z,-0.7
2022-12-11T21:59:02.698Z,-0.7
2022-12-11T22:14:02.656Z,-0.9
2022-12-11T22:29:02.666Z,-1.1
2022-12-11T22:44:02.652Z,-1.3
2022-12-11T22:59:02.688Z,-1.4
2022-12-11T23:14:02.642Z,-1.5
2022-12-11T23:29:02.655Z,-1.7
2022-12-11T23:44:02.654Z,-1.8
2022-12-11T23:59:02.671Z,-1.7
